createdAt,value
2023-05-10T00:01:55.386Z,1.75
2023-05-10T00:06:56.844Z,1.70
2023-05-10T00:11:59.414Z,1.80
2023-05-10T00:17:01.057Z,1.92
2023-05-10T00:22:02.596Z,1.50
2023-05-10T00:27:04.970Z,1.65
2023-05-10T00:32:06.873Z,1.80
2023-05-10T00:37:08.460Z,1.45
2023-05-10T00:42:10.197Z,1.40
2023-05-10T00:47:12.592Z,1.80
2023-05-10T00:52:14.138Z,1.88
2023-05-10T00:57:16.293Z,1.80
2023-05-10T01:02:17.834Z,2.03
2023-05-10T01:07:19.297Z,1.85
2023-05-10T01:12:21.043Z,1.80
2023-05-10T01:17:23.455Z,1.80
2023-05-10T01:22:51.028Z,2.10
2023-05-10T01:28:14.223Z,1.52
2023-05-10T01:33:29.803Z,1.83
2023-05-10T01:38:43.775Z,1.60
2023-05-10T01:44:09.369Z,1.80
2023-05-10T01:49:19.877Z,1.85
2023-05-10T01:54:25.047Z,1.98
2023-05-10T01:59:30.727Z,1.77
2023-05-10T02:04:34.783Z,1.60
2023-05-10T02:09:38.051Z,1.55
2023-05-10T02:14:42.158Z,1.70
2023-05-10T02:19:44.665Z,1.65
2023-05-10T02:24:47.861Z,1.60
2023-05-10T02:29:52.289Z,1.40
2023-05-10T02:34:55.606Z,1.15
2023-05-10T02:39:58.027Z,1.60
2023-05-10T02:45:08.227Z,1.70
2023-05-10T02:50:11.171Z,1.70
2023-05-10T02:55:16.378Z,1.90
2023-05-10T03:00:18.285Z,1.33
2023-05-10T03:05:20.450Z,1.80
2023-05-10T03:10:27.807Z,1.88
2023-05-10T03:15:54.316Z,1.63
2023-05-10T03:21:00.189Z,1.33
2023-05-10T03:26:02.609Z,1.55
2023-05-10T03:31:07.132Z,1.40
2023-05-10T03:36:09.278Z,1.85
2023-05-10T03:41:11.005Z,1.90
2023-05-10T03:46:12.619Z,1.38
2023-05-10T03:51:14.449Z,1.70
2023-05-10T03:56:16.104Z,1.70
2023-05-10T04:01:18.249Z,1.55
2023-05-10T04:06:19.808Z,1.75
2023-05-10T04:11:22.922Z,1.80
2023-05-10T04:16:24.488Z,1.70
2023-05-10T04:21:26.239Z,1.75
2023-05-10T04:26:27.742Z,1.92
2023-05-10T04:31:29.277Z,1.65
2023-05-10T04:36:30.742Z,1.60
2023-05-10T04:41:32.263Z,1.92
2023-05-10T04:46:33.822Z,1.67
2023-05-10T04:51:35.289Z,1.80
2023-05-10T04:56:36.737Z,1.50
2023-05-10T05:01:38.213Z,1.85
2023-05-10T05:06:39.681Z,1.85
2023-05-10T05:11:41.387Z,1.70
2023-05-10T05:16:43.996Z,1.40
2023-05-10T05:21:45.599Z,1.70
2023-05-10T05:26:47.165Z,1.63
2023-05-10T05:31:48.646Z,1.50
2023-05-10T05:36:50.125Z,1.10
2023-05-10T05:41:51.557Z,1.63
2023-05-10T05:46:52.992Z,1.20
2023-05-10T05:51:54.469Z,1.10
2023-05-10T05:57:01.169Z,1.50
2023-05-10T06:02:03.292Z,1.60
2023-05-10T06:07:04.975Z,1.30
2023-05-10T06:12:06.476Z,1.20
2023-05-10T06:17:07.958Z,1.60
2023-05-10T06:22:09.993Z,1.60
2023-05-10T06:27:12.135Z,1.85
2023-05-10T06:32:13.633Z,1.35
2023-05-10T06:37:15.184Z,1.60
2023-05-10T06:42:16.708Z,1.52
2023-05-10T06:47:21.355Z,1.48
2023-05-10T06:52:22.852Z,1.33
2023-05-10T07:07:33.263Z,1.70
2023-05-10T07:12:34.724Z,1.45
2023-05-10T07:17:36.294Z,1.77
2023-05-10T07:22:37.905Z,1.60
2023-05-10T07:27:39.335Z,1.55
2023-05-10T07:32:42.738Z,2.00
2023-05-10T07:37:44.195Z,1.50
2023-05-10T07:42:45.610Z,1.95
2023-05-10T07:47:47.066Z,1.65
2023-05-10T07:52:49.059Z,1.60
2023-05-10T07:57:50.566Z,1.60
2023-05-10T08:02:52.414Z,1.50
2023-05-10T08:07:53.945Z,1.80
2023-05-10T08:12:55.383Z,1.70
2023-05-10T08:17:56.875Z,2.63
2023-05-10T08:22:58.419Z,1.65
2023-05-10T08:28:00.314Z,1.90
2023-05-10T08:33:05.104Z,1.73
2023-05-10T08:38:06.732Z,1.70
2023-05-10T08:43:10.296Z,2.00
2023-05-10T08:48:12.784Z,1.75
2023-05-10T08:53:17.191Z,1.60
2023-05-10T08:58:20.505Z,1.92
2023-05-10T09:03:21.974Z,1.83
2023-05-10T09:08:27.238Z,2.03
2023-05-10T09:13:29.258Z,1.83
2023-05-10T09:18:30.857Z,1.92
2023-05-10T09:23:33.300Z,1.98
2023-05-10T09:28:35.740Z,1.80
2023-05-10T09:33:45.178Z,1.85
2023-05-10T09:38:51.785Z,2.10
2023-05-10T09:43:56.937Z,1.52
2023-05-10T09:48:59.257Z,1.73
2023-05-10T09:54:11.868Z,1.80
2023-05-10T09:59:13.497Z,2.10
2023-05-10T10:04:15.655Z,2.13
2023-05-10T10:09:19.394Z,1.83
2023-05-10T10:14:21.257Z,2.00
2023-05-10T10:19:23.158Z,2.25
2023-05-10T10:24:24.599Z,2.22
2023-05-10T10:30:04.928Z,2.17
2023-05-10T10:35:09.665Z,1.90
2023-05-10T10:40:27.349Z,1.80
2023-05-10T10:45:28.789Z,2.33
2023-05-10T10:50:30.230Z,2.08
2023-05-10T10:55:34.484Z,2.15
2023-05-10T11:00:37.923Z,2.13
2023-05-10T11:05:46.631Z,1.83
2023-05-10T11:11:01.019Z,2.22
2023-05-10T11:16:24.604Z,2.05
2023-05-10T11:21:27.040Z,2.03
2023-05-10T11:26:39.089Z,2.10
2023-05-10T11:31:46.154Z,2.20
2023-05-10T11:36:52.378Z,2.85
2023-05-10T11:41:53.882Z,2.17
2023-05-10T11:46:55.338Z,2.40
2023-05-10T11:52:07.841Z,2.00
2023-05-10T11:57:09.290Z,2.10
2023-05-10T12:02:11.312Z,2.40
2023-05-10T12:07:12.803Z,2.30
2023-05-10T12:12:18.019Z,2.05
2023-05-10T12:17:19.480Z,2.58
2023-05-10T12:22:22.050Z,2.03
2023-05-10T12:27:23.488Z,3.30
2023-05-10T12:32:38.862Z,2.78
2023-05-10T12:37:40.452Z,2.88
2023-05-10T12:42:42.069Z,3.03
2023-05-10T12:47:44.174Z,2.88
2023-05-10T12:52:45.803Z,2.60
2023-05-10T12:57:47.242Z,2.08
2023-05-10T13:02:48.690Z,2.58
2023-05-10T13:07:53.695Z,1.98
2023-05-10T13:12:55.352Z,2.30
2023-05-10T13:17:56.878Z,2.10
2023-05-10T13:22:58.481Z,1.63
2023-05-10T13:28:00.085Z,1.52
2023-05-10T13:33:01.681Z,2.22
2023-05-10T13:38:03.189Z,2.20
2023-05-10T13:43:04.710Z,1.92
2023-05-10T13:48:06.297Z,2.30
2023-05-10T13:53:07.770Z,1.50
2023-05-10T13:58:09.223Z,1.80
2023-05-10T14:03:12.386Z,1.80
2023-05-10T14:08:14.653Z,1.70
2023-05-10T14:13:16.200Z,1.90
2023-05-10T14:18:17.667Z,2.30
2023-05-10T14:23:20.860Z,1.98
2023-05-10T14:28:23.783Z,2.13
2023-05-10T14:33:25.422Z,2.22
2023-05-10T14:38:27.540Z,3.08
2023-05-10T14:43:29.084Z,2.30
2023-05-10T14:48:30.660Z,2.50
2023-05-10T14:53:32.170Z,2.00
2023-05-10T14:58:34.432Z,2.30
2023-05-10T15:03:36.220Z,1.88
2023-05-10T15:08:38.145Z,1.80
2023-05-10T15:13:39.576Z,1.80
2023-05-10T15:18:41.062Z,1.65
2023-05-10T15:23:42.564Z,2.15
2023-05-10T15:28:44.554Z,1.67
2023-05-10T15:33:45.990Z,2.40
2023-05-10T15:38:47.409Z,1.98
2023-05-10T15:43:48.819Z,1.50
2023-05-10T15:48:50.527Z,2.38
2023-05-10T15:54:05.980Z,1.60
2023-05-10T15:59:10.606Z,1.75
2023-05-10T16:04:12.467Z,1.70
2023-05-10T16:09:13.992Z,2.13
2023-05-10T16:14:16.362Z,1.70
2023-05-10T16:19:18.428Z,2.10
2023-05-10T16:24:20.065Z,1.98
2023-05-10T16:29:21.479Z,1.73
2023-05-10T16:34:24.306Z,1.40
2023-05-10T16:39:25.912Z,1.60
2023-05-10T16:44:27.347Z,1.08
2023-05-10T16:49:28.973Z,1.45
2023-05-10T16:54:30.448Z,1.27
2023-05-10T16:59:31.882Z,1.60
2023-05-10T17:04:33.362Z,1.60
2023-05-10T17:09:34.902Z,1.65
2023-05-10T17:14:39.997Z,1.33
2023-05-10T17:19:44.887Z,1.40
2023-05-10T17:24:46.510Z,1.30
2023-05-10T17:29:47.985Z,1.20
2023-05-10T17:34:49.693Z,1.27
2023-05-10T17:39:52.307Z,1.50
2023-05-10T17:44:54.444Z,1.80
2023-05-10T17:49:55.937Z,1.50
2023-05-10T17:54:57.406Z,2.10
2023-05-10T17:59:58.856Z,1.52
2023-05-10T18:05:01.648Z,1.50
2023-05-10T18:10:03.246Z,1.40
2023-05-10T18:15:05.329Z,1.40
2023-05-10T18:20:07.428Z,1.40
2023-05-10T18:25:09.229Z,1.25
2023-05-10T18:30:12.349Z,1.40
2023-05-10T18:35:14.053Z,1.33
2023-05-10T18:40:17.111Z,1.25
2023-05-10T18:45:18.854Z,1.35
2023-05-10T18:50:20.666Z,1.40
2023-05-10T18:55:23.710Z,1.30
2023-05-10T19:00:25.333Z,1.33
2023-05-10T19:05:30.014Z,1.48
2023-05-10T19:10:31.434Z,1.20
2023-05-10T19:15:33.084Z,1.20
2023-05-10T19:20:38.093Z,1.15
2023-05-10T19:25:42.251Z,1.00
2023-05-10T19:30:43.697Z,1.38
2023-05-10T19:35:45.547Z,1.50
2023-05-10T19:40:46.994Z,1.48
2023-05-10T19:45:48.470Z,2.00
2023-05-10T19:50:50.455Z,1.65
2023-05-10T19:55:51.927Z,4.13
2023-05-10T20:00:53.575Z,4.63
2023-05-10T20:05:55.049Z,5.10
2023-05-10T20:10:58.949Z,5.40
2023-05-10T20:16:00.608Z,2.00
2023-05-10T20:21:02.049Z,2.20
2023-05-10T20:26:04.103Z,2.05
2023-05-10T20:31:05.566Z,1.95
2023-05-10T20:36:09.486Z,2.40
2023-05-10T20:41:10.929Z,2.22
2023-05-10T20:46:12.482Z,2.00
2023-05-10T20:51:13.942Z,2.10
2023-05-10T20:56:15.511Z,1.73
2023-05-10T21:01:16.959Z,2.20
2023-05-10T21:06:18.398Z,2.22
2023-05-10T21:11:19.838Z,2.10
2023-05-10T21:16:21.319Z,2.00
2023-05-10T21:21:22.836Z,2.03
2023-05-10T21:26:24.299Z,2.13
2023-05-10T21:31:25.851Z,2.00
2023-05-10T21:36:27.812Z,1.88
2023-05-10T21:41:29.263Z,2.10
2023-05-10T21:46:30.971Z,2.60
2023-05-10T21:51:32.425Z,2.88
2023-05-10T21:56:33.856Z,2.05
2023-05-10T22:01:35.376Z,2.30
2023-05-10T22:06:36.886Z,2.25
2023-05-10T22:11:38.319Z,2.17
2023-05-10T22:16:39.758Z,2.55
2023-05-10T22:21:41.412Z,1.63
2023-05-10T22:26:42.829Z,2.90
2023-05-10T22:31:44.244Z,2.45
2023-05-10T22:36:45.852Z,2.33
2023-05-10T22:41:47.270Z,2.60
2023-05-10T22:46:48.737Z,2.70
2023-05-10T22:51:50.216Z,3.08
2023-05-10T22:56:51.646Z,1.52
2023-05-10T23:01:54.143Z,2.05
2023-05-10T23:06:55.603Z,1.92
2023-05-10T23:11:57.416Z,3.30
2023-05-10T23:16:58.903Z,2.28
2023-05-10T23:22:00.403Z,1.60
2023-05-10T23:27:02.359Z,2.53
2023-05-10T23:32:04.055Z,1.80
2023-05-10T23:37:06.175Z,1.88
2023-05-10T23:42:07.616Z,1.98
2023-05-10T23:47:09.062Z,1.95
2023-05-10T23:52:10.521Z,2.80
2023-05-10T23:57:11.959Z,2.70
